Gunyarra, Queensland

5:45 PM AEST on December 18, 2014 (GMT +1000)
Proserpine Mill | Change Station
CLOSE
Current Station
Personal Weather Station
Location: Proserpine, Queensland
Elevation: 43 ft
Nearby Weather Stations

Elev 43 ft 20.40 °S, 148.58 °E | Updated 6 minutes ago

Clear
Clear
85.6 °F
Feels Like 91 °F
N
5.0
Wind Variable Wind from NNW
Gusts 9.0 mph

Today
High -- | Low -- °F
--% Chance of Precip.
Yesterday
High -- | Low -- °F
Precip. -- in
5:20 AM 6:43 PM
Waning Crescent, 16% visible
Pressure 29.83 in
Visibility 6.2 miles
Clouds
Heat Index 91 °F
Dew Point 72 °F
Humidity 63%
Rainfall 0.00 in
Snow Depth Not available.
UV Not available.
Pollen Not available.
Air Quality Not available.
Flu Activity Not available.
METAR YBHM 180730Z AUTO 33016KT 9999 // NCD 28/22 Q1010

More Conditions Fewer Conditions

Pressure 29.83 in
Visibility 6.2 miles
Clouds
Heat Index 91 °F
Dew Point 72 °F
Humidity 63%
Rainfall 0.00 in
Snow Depth Not available.
UV Not available.
Pollen Not available.
Air Quality Not available.
Flu Activity Not available.
METAR YBHM 180730Z AUTO 33016KT 9999 // NCD 28/22 Q1010

More Conditions Fewer Conditions

10-Day Weather Forecast

Almanac

Astronomy

Dec. 18, 2014 Rise Set
Actual Time
Civil Twilight
Nautical Twilight
Astronomical Twilight
Moon
Length of Visible Light
Length of Day
Tomorrow will be .
, % of the Moon is Illuminated

Today's Extremes

Country Highs Country Lows

Community

WunderPhotos

Upload Photos

1,778,900 photos uploaded!

WunderBlogs® & News

Nearby

Air Quality

  Air Quality AQ Index Pollutant
Not available.

Snow Depth

Station Depth Elevation

Earthquake Activity

City Distance Mag. Time & Date
Minimum magnitude displayed is 2.5.

Coastal Water Temperatures

Place Temperature

Nearby Weather Stations